アテネ の空港の天気 - METARとTAF

アテネ国際空港 ( LGAV / ATH ) - ギリシャ アテネ
飛行場実況気象(Metar)
観測時間07/16 08:50 EEST (07/16 05:50 UTC)
風向・風速不定 1m/s
視程10km以上
天気現象
なし
気温27℃
湿度45%
気圧1011hPa
METARLGAV 160550Z VRB02KT CAVOK 27/14 Q1011 NOSIG
過去の天気等 Google飛行場航空写真 Wunderground天気予報

過去48時間のMETAR

飛行場予報(TAF)
発表時間: 7/16 08:00 EEST (7/16 05:00 UTC)
予報対象時間: 16日9時 EEST ~ 17日9時 EEST
風向・風速北東 5m/s
視程10km以上
少しの雲 雲底高度 910m
16日13時 EEST ~ 16日15時 EEST に徐々に
風向・風速南南東 5m/s
TAF LGAV 160500Z 1606/1706 04010KT 9999 FEW030
BECMG 1610/1612 15010KT